createdAt,value
2022-12-25T00:00:55.485Z,4.38
2022-12-25T00:03:22.251Z,4.45
2022-12-25T00:05:48.857Z,4.34
2022-12-25T00:08:15.473Z,4.27
2022-12-25T00:10:45.187Z,4.26
2022-12-25T00:13:11.922Z,4.22
2022-12-25T00:15:41.593Z,4.23
2022-12-25T00:18:08.279Z,4.20
2022-12-25T00:20:34.738Z,4.20
2022-12-25T00:23:01.239Z,4.19
2022-12-25T00:25:27.735Z,4.22
2022-12-25T00:27:54.259Z,4.28
2022-12-25T00:30:20.715Z,4.25
2022-12-25T00:32:47.178Z,4.28
2022-12-25T00:35:14.757Z,4.32
2022-12-25T00:37:41.248Z,4.24
2022-12-25T00:40:08.286Z,4.17
2022-12-25T00:42:34.693Z,4.14
2022-12-25T00:45:01.648Z,4.09
2022-12-25T00:47:28.074Z,4.06
2022-12-25T00:49:55.307Z,4.10
2022-12-25T00:52:21.808Z,4.12
2022-12-25T00:54:48.401Z,4.07
2022-12-25T00:57:14.914Z,4.00
2022-12-25T00:59:41.440Z,3.98
2022-12-25T01:02:26.513Z,3.94
2022-12-25T01:04:57.036Z,3.85
2022-12-25T01:07:25.853Z,3.79
2022-12-25T01:10:11.382Z,3.78
2022-12-25T01:12:41.074Z,3.77
2022-12-25T01:15:10.130Z,3.84
2022-12-25T01:17:36.921Z,3.79
2022-12-25T01:20:04.355Z,3.69
2022-12-25T01:22:30.950Z,3.62
2022-12-25T01:24:57.380Z,3.57
2022-12-25T01:27:23.977Z,3.50
2022-12-25T01:29:50.462Z,3.48
2022-12-25T01:32:16.907Z,3.42
2022-12-25T01:34:43.371Z,3.36
2022-12-25T01:37:10.860Z,3.30
2022-12-25T01:39:37.305Z,3.25
2022-12-25T01:42:03.915Z,3.19
2022-12-25T01:44:36.628Z,3.12
2022-12-25T01:47:04.874Z,3.10
2022-12-25T01:49:33.405Z,3.10
2022-12-25T01:52:05.364Z,3.03
2022-12-25T01:54:38.354Z,2.97
2022-12-25T01:57:08.545Z,2.90
2022-12-25T01:59:35.543Z,2.85
2022-12-25T02:02:02.026Z,2.78
2022-12-25T02:04:40.678Z,2.72
2022-12-25T02:07:14.853Z,2.66
2022-12-25T02:09:42.534Z,2.61
2022-12-25T02:12:14.961Z,2.57
2022-12-25T02:14:41.422Z,2.50
2022-12-25T02:17:33.126Z,2.38
2022-12-25T02:20:12.313Z,2.28
2022-12-25T02:23:01.927Z,2.20
2022-12-25T02:25:49.727Z,2.16
2022-12-25T02:28:25.448Z,2.13
2022-12-25T02:31:17.747Z,2.10
2022-12-25T02:34:03.382Z,2.09
2022-12-25T02:36:38.420Z,2.09
2022-12-25T02:39:31.760Z,2.09
2022-12-25T02:42:01.781Z,2.10
2022-12-25T02:44:48.504Z,2.12
2022-12-25T02:47:34.328Z,2.17
2022-12-25T02:50:36.115Z,2.18
2022-12-25T02:53:42.834Z,2.21
2022-12-25T02:56:29.650Z,2.24
2022-12-25T02:59:15.144Z,2.21
2022-12-25T03:02:01.653Z,2.16
2022-12-25T03:04:47.443Z,2.11
2022-12-25T03:07:18.839Z,2.07
2022-12-25T03:10:47.074Z,2.07
2022-12-25T03:13:19.704Z,2.03
2022-12-25T03:16:06.331Z,2.02
2022-12-25T03:18:33.405Z,2.00
2022-12-25T03:21:19.064Z,1.97
2022-12-25T03:24:09.755Z,1.94
2022-12-25T03:26:54.546Z,1.90
2022-12-25T03:29:44.894Z,1.91
2022-12-25T03:32:22.645Z,1.90
2022-12-25T03:35:23.636Z,1.91
2022-12-25T03:38:34.778Z,1.91
2022-12-25T03:41:41.802Z,1.89
2022-12-25T03:44:32.276Z,1.87
2022-12-25T03:47:37.102Z,1.83
2022-12-25T03:50:54.623Z,1.77
2022-12-25T03:54:03.782Z,1.72
2022-12-25T03:56:50.606Z,1.66
2022-12-25T03:59:40.520Z,1.61
2022-12-25T04:02:26.056Z,1.51
2022-12-25T04:05:11.257Z,1.49
2022-12-25T04:07:56.651Z,1.47
2022-12-25T04:10:42.138Z,1.44
2022-12-25T04:13:27.520Z,1.43
2022-12-25T04:16:13.400Z,1.40
2022-12-25T04:18:58.432Z,1.37
2022-12-25T04:21:43.901Z,1.37
2022-12-25T04:24:29.749Z,1.38
2022-12-25T04:27:15.171Z,1.36
2022-12-25T04:30:00.112Z,1.37
2022-12-25T04:32:45.100Z,1.36
2022-12-25T04:35:30.620Z,1.36
2022-12-25T04:37:57.279Z,1.33
2022-12-25T04:40:23.852Z,1.29
2022-12-25T04:42:51.853Z,1.26
2022-12-25T04:45:18.890Z,1.25
2022-12-25T04:47:45.190Z,1.23
2022-12-25T04:50:11.915Z,1.21
2022-12-25T04:52:40.493Z,1.18
2022-12-25T04:55:09.123Z,1.21
2022-12-25T04:57:36.011Z,1.13
2022-12-25T05:00:02.650Z,1.11
2022-12-25T05:02:29.371Z,1.04
2022-12-25T05:04:56.001Z,0.99
2022-12-25T05:07:22.469Z,0.96
2022-12-25T05:09:48.892Z,0.91
2022-12-25T05:12:15.357Z,0.89
2022-12-25T05:14:41.835Z,0.86
2022-12-25T05:17:08.399Z,0.84
2022-12-25T05:19:34.943Z,0.81
2022-12-25T05:22:01.563Z,0.79
2022-12-25T05:24:28.629Z,0.76
2022-12-25T05:26:54.997Z,0.74
2022-12-25T05:29:21.548Z,0.72
2022-12-25T05:31:48.041Z,0.69
2022-12-25T05:34:14.523Z,0.67
2022-12-25T05:36:41.190Z,0.61
2022-12-25T05:39:07.649Z,0.58
2022-12-25T05:41:34.921Z,0.51
2022-12-25T05:44:01.924Z,0.47
2022-12-25T05:46:28.443Z,0.42
2022-12-25T05:48:54.937Z,0.38
2022-12-25T05:51:21.387Z,0.34
2022-12-25T05:53:47.953Z,0.31
2022-12-25T05:56:14.356Z,0.29
2022-12-25T05:58:41.297Z,0.26
2022-12-25T06:01:12.113Z,0.24
2022-12-25T06:03:38.976Z,0.23
2022-12-25T06:06:07.246Z,0.20
2022-12-25T06:08:34.527Z,0.18
2022-12-25T06:11:05.536Z,0.16
2022-12-25T06:13:33.211Z,0.16
2022-12-25T06:15:59.803Z,0.17
2022-12-25T06:18:26.585Z,0.17
2022-12-25T06:20:53.088Z,0.16
2022-12-25T06:23:19.691Z,0.18
2022-12-25T06:25:46.181Z,0.19
2022-12-25T06:28:12.696Z,0.19
2022-12-25T06:30:39.242Z,0.20
2022-12-25T06:33:05.713Z,0.18
2022-12-25T06:35:32.131Z,0.17
2022-12-25T06:37:58.751Z,0.15
2022-12-25T06:40:25.141Z,0.13
2022-12-25T06:42:51.919Z,0.12
2022-12-25T06:45:18.473Z,0.08
2022-12-25T06:47:44.884Z,-0.01
2022-12-25T06:50:11.391Z,-0.11
2022-12-25T06:52:37.862Z,-0.14
2022-12-25T06:55:04.481Z,-0.14
2022-12-25T06:57:30.953Z,-0.17
2022-12-25T06:59:57.470Z,-0.20
2022-12-25T07:02:24.982Z,-0.19
2022-12-25T07:04:52.528Z,-0.24
2022-12-25T07:07:19.414Z,-0.25
2022-12-25T07:09:46.009Z,-0.28
2022-12-25T07:12:23.724Z,-0.30
2022-12-25T07:14:53.308Z,-0.30
2022-12-25T07:17:20.549Z,-0.31
2022-12-25T07:19:47.444Z,-0.31
2022-12-25T07:22:14.857Z,-0.31
2022-12-25T07:24:41.571Z,-0.32
2022-12-25T07:27:08.387Z,-0.30
2022-12-25T07:29:34.936Z,-0.27
2022-12-25T07:32:01.845Z,-0.27
2022-12-25T07:34:28.316Z,-0.25
2022-12-25T07:36:55.172Z,-0.24
2022-12-25T07:39:21.667Z,-0.23
2022-12-25T07:41:48.216Z,-0.20
2022-12-25T07:44:15.723Z,-0.15
2022-12-25T07:46:42.430Z,-0.03
2022-12-25T07:51:50.610Z,0.06
2022-12-25T07:54:17.044Z,0.09
2022-12-25T07:56:43.481Z,0.13
2022-12-25T07:59:09.976Z,0.18
2022-12-25T08:01:36.526Z,0.23
2022-12-25T08:04:03.349Z,0.28
2022-12-25T08:06:32.917Z,0.35
2022-12-25T08:09:06.530Z,0.41
2022-12-25T08:11:34.112Z,0.44
2022-12-25T08:14:00.875Z,0.52
2022-12-25T08:16:27.335Z,0.59
2022-12-25T08:18:54.054Z,0.65
2022-12-25T08:21:20.607Z,0.67
2022-12-25T08:23:47.641Z,0.72
2022-12-25T08:26:15.548Z,0.75
2022-12-25T08:28:42.315Z,0.79
2022-12-25T08:31:30.015Z,0.85
2022-12-25T08:33:58.034Z,0.90
2022-12-25T08:36:25.329Z,0.99
2022-12-25T08:38:54.595Z,1.10
2022-12-25T08:41:25.510Z,1.25
2022-12-25T08:43:51.948Z,1.37
2022-12-25T08:46:18.483Z,1.49
2022-12-25T08:48:48.528Z,1.56
2022-12-25T08:51:18.633Z,1.59
2022-12-25T08:53:47.161Z,1.65
2022-12-25T08:56:14.039Z,1.72
2022-12-25T08:58:40.496Z,1.80
2022-12-25T09:01:07.789Z,1.86
2022-12-25T09:03:34.836Z,2.03
2022-12-25T09:06:04.982Z,2.22
2022-12-25T09:08:31.485Z,2.56
2022-12-25T09:11:02.216Z,3.35
2022-12-25T09:13:28.752Z,3.97
2022-12-25T09:15:55.244Z,4.51
2022-12-25T09:18:21.722Z,4.99
2022-12-25T09:20:57.439Z,5.44
2022-12-25T09:23:23.899Z,5.70
2022-12-25T09:25:50.411Z,5.97
2022-12-25T09:28:16.820Z,6.16
2022-12-25T09:30:43.311Z,6.28
2022-12-25T09:33:09.808Z,6.41
2022-12-25T09:35:36.284Z,6.57
2022-12-25T09:38:02.834Z,6.74
2022-12-25T09:40:32.000Z,6.86
2022-12-25T09:42:59.518Z,7.00
2022-12-25T09:45:29.996Z,7.10
2022-12-25T09:47:57.431Z,7.14
2022-12-25T09:50:43.691Z,7.26
2022-12-25T09:53:17.502Z,7.33
2022-12-25T09:55:52.970Z,7.44
2022-12-25T09:58:19.433Z,7.53
2022-12-25T10:00:58.553Z,7.47
2022-12-25T10:03:46.660Z,7.42
2022-12-25T10:06:19.025Z,7.48
2022-12-25T10:09:03.438Z,7.51
2022-12-25T10:12:08.042Z,7.54
2022-12-25T10:15:24.560Z,7.53
2022-12-25T10:18:09.646Z,7.54
2022-12-25T10:20:57.333Z,7.53
2022-12-25T10:23:39.512Z,7.53
2022-12-25T10:26:21.715Z,7.57
2022-12-25T10:29:04.331Z,7.70
2022-12-25T10:31:36.181Z,7.73
2022-12-25T10:34:04.785Z,7.75
2022-12-25T10:36:32.196Z,7.75
2022-12-25T10:38:58.735Z,7.64
2022-12-25T10:42:03.564Z,7.52
2022-12-25T10:44:31.108Z,7.46
2022-12-25T10:46:59.745Z,7.35
2022-12-25T10:49:32.158Z,7.29
2022-12-25T10:51:59.020Z,7.25
2022-12-25T10:54:35.145Z,7.19
2022-12-25T10:57:13.166Z,7.11
2022-12-25T10:59:43.903Z,7.06
2022-12-25T11:02:34.823Z,7.08
2022-12-25T11:05:05.367Z,7.11
2022-12-25T11:07:33.572Z,7.31
2022-12-25T11:10:05.669Z,7.53
2022-12-25T11:12:36.340Z,7.83
2022-12-25T11:15:40.539Z,8.18
2022-12-25T11:18:27.391Z,8.42
2022-12-25T11:20:57.971Z,8.48
2022-12-25T11:23:26.640Z,8.39
2022-12-25T11:26:11.761Z,8.29
2022-12-25T11:28:40.508Z,8.22
2022-12-25T11:31:13.244Z,8.14
2022-12-25T11:33:50.977Z,8.02
2022-12-25T11:36:29.748Z,7.93
2022-12-25T11:39:01.024Z,7.82
2022-12-25T11:41:32.268Z,7.75
2022-12-25T11:44:05.136Z,7.70
2022-12-25T11:46:41.396Z,7.65
2022-12-25T11:49:15.070Z,7.58
2022-12-25T11:51:45.936Z,7.49
2022-12-25T11:54:33.710Z,7.46
2022-12-25T11:57:04.508Z,7.44
2022-12-25T11:59:37.481Z,7.41
2022-12-25T12:02:20.897Z,7.39
2022-12-25T12:04:54.237Z,7.39
2022-12-25T12:07:26.738Z,7.36
2022-12-25T12:10:17.888Z,7.36
2022-12-25T12:12:55.936Z,7.35
2022-12-25T12:15:25.022Z,7.33
2022-12-25T12:17:51.420Z,7.33
2022-12-25T12:20:31.603Z,7.30
2022-12-25T12:23:00.390Z,7.29
2022-12-25T12:25:28.030Z,7.23
2022-12-25T12:28:04.555Z,7.26
2022-12-25T12:30:37.660Z,7.21
2022-12-25T12:33:07.708Z,7.20
2022-12-25T12:35:39.958Z,7.18
2022-12-25T12:38:11.999Z,7.21
2022-12-25T12:40:53.802Z,7.22
2022-12-25T12:43:43.088Z,7.24
2022-12-25T12:46:30.166Z,7.30
2022-12-25T12:49:11.431Z,7.32
2022-12-25T12:51:38.869Z,7.38
2022-12-25T12:54:22.511Z,7.53
2022-12-25T12:57:02.413Z,7.54
2022-12-25T12:59:49.222Z,7.50
2022-12-25T13:02:27.887Z,7.51
2022-12-25T13:05:34.501Z,7.51
2022-12-25T13:08:27.161Z,7.51
2022-12-25T13:11:21.126Z,7.53
2022-12-25T13:13:50.309Z,7.47
2022-12-25T13:16:24.804Z,7.46
2022-12-25T13:18:53.397Z,7.34
2022-12-25T13:21:23.287Z,7.31
2022-12-25T13:23:57.286Z,7.27
2022-12-25T13:26:24.306Z,7.25
2022-12-25T13:28:50.647Z,7.23
2022-12-25T13:31:20.285Z,7.24
2022-12-25T13:34:05.768Z,7.22
2022-12-25T13:36:40.329Z,7.23
2022-12-25T13:39:08.973Z,7.20
2022-12-25T13:42:06.954Z,7.18
2022-12-25T13:44:39.538Z,7.15
2022-12-25T13:47:30.529Z,7.08
2022-12-25T13:49:59.916Z,7.04
2022-12-25T13:55:00.336Z,7.02
2022-12-25T13:57:31.336Z,7.01
2022-12-25T13:59:58.956Z,6.97
2022-12-25T14:02:31.970Z,6.97
2022-12-25T14:04:58.640Z,6.88
2022-12-25T14:07:25.991Z,6.88
2022-12-25T14:10:01.604Z,6.84
2022-12-25T14:12:30.484Z,6.83
2022-12-25T14:14:59.126Z,6.86
2022-12-25T14:17:25.885Z,6.84
2022-12-25T14:20:02.373Z,6.81
2022-12-25T14:22:34.056Z,6.78
2022-12-25T14:25:01.449Z,6.74
2022-12-25T14:27:30.499Z,6.75
2022-12-25T14:29:59.654Z,6.73
2022-12-25T14:32:29.908Z,6.74
2022-12-25T14:35:02.788Z,6.71
2022-12-25T14:37:32.251Z,6.69
2022-12-25T14:40:01.353Z,6.68
2022-12-25T14:42:31.376Z,6.65
2022-12-25T14:44:58.654Z,6.62
2022-12-25T14:47:25.960Z,6.61
2022-12-25T14:49:55.004Z,6.60
2022-12-25T14:52:26.803Z,6.59
2022-12-25T14:54:57.992Z,6.58
2022-12-25T14:57:38.789Z,6.58
2022-12-25T15:00:24.687Z,6.61
2022-12-25T15:02:54.148Z,6.60
2022-12-25T15:05:28.500Z,6.54
2022-12-25T15:08:04.492Z,6.49
2022-12-25T15:10:59.490Z,6.44
2022-12-25T15:13:18.720Z,6.45
2022-12-25T15:15:50.715Z,6.45
2022-12-25T15:18:18.556Z,6.41
2022-12-25T15:20:45.162Z,6.38
2022-12-25T15:23:20.241Z,6.37
2022-12-25T15:25:47.748Z,6.35
2022-12-25T15:28:14.532Z,6.34
2022-12-25T15:30:41.325Z,6.34
2022-12-25T15:33:13.261Z,6.35
2022-12-25T15:35:39.932Z,6.37
2022-12-25T15:38:06.891Z,6.35
2022-12-25T15:40:33.608Z,6.34
2022-12-25T15:43:00.108Z,6.28
2022-12-25T15:45:29.005Z,6.30
2022-12-25T15:47:55.607Z,6.29
2022-12-25T15:50:22.738Z,6.32
2022-12-25T15:52:49.477Z,6.34
2022-12-25T15:55:18.676Z,6.36
2022-12-25T15:57:48.462Z,6.37
2022-12-25T16:00:18.696Z,6.37
2022-12-25T16:02:45.627Z,6.35
2022-12-25T16:05:12.335Z,6.32
2022-12-25T16:07:39.032Z,6.36
2022-12-25T16:10:06.649Z,6.35
2022-12-25T16:12:33.172Z,6.37
2022-12-25T16:15:00.570Z,6.36
2022-12-25T16:17:27.108Z,6.34
2022-12-25T16:19:54.152Z,6.37
2022-12-25T16:22:23.022Z,6.35
2022-12-25T16:24:50.027Z,6.36
2022-12-25T16:27:16.477Z,6.37
2022-12-25T16:29:43.169Z,6.38
2022-12-25T16:32:13.085Z,6.40
2022-12-25T16:34:40.720Z,6.41
2022-12-25T16:37:07.391Z,6.41
2022-12-25T16:39:33.956Z,6.45
2022-12-25T16:42:00.806Z,6.46
2022-12-25T16:44:27.383Z,6.49
2022-12-25T16:46:53.951Z,6.53
2022-12-25T16:49:20.492Z,6.58
2022-12-25T16:51:47.057Z,6.63
2022-12-25T16:54:13.528Z,6.71
2022-12-25T16:56:40.583Z,6.72
2022-12-25T16:59:07.019Z,6.74
2022-12-25T17:01:33.559Z,6.74
2022-12-25T17:04:01.507Z,6.74
2022-12-25T17:06:28.919Z,6.73
2022-12-25T17:08:59.693Z,6.76
2022-12-25T17:11:29.920Z,6.81
2022-12-25T17:13:59.865Z,6.83
2022-12-25T17:16:28.743Z,6.84
2022-12-25T17:18:57.026Z,6.85
2022-12-25T17:21:24.686Z,6.83
2022-12-25T17:23:52.620Z,6.87
2022-12-25T17:26:21.861Z,6.88
2022-12-25T17:28:48.345Z,6.84
2022-12-25T17:31:14.884Z,6.83
2022-12-25T17:33:42.948Z,6.80
2022-12-25T17:36:16.032Z,6.80
2022-12-25T17:38:43.147Z,6.81
2022-12-25T17:41:12.314Z,6.79
2022-12-25T17:43:41.248Z,6.79
2022-12-25T17:46:18.965Z,6.81
2022-12-25T17:48:45.879Z,6.82
2022-12-25T17:51:16.072Z,6.83
2022-12-25T17:53:45.203Z,6.84
2022-12-25T17:56:12.480Z,6.86
2022-12-25T17:58:39.451Z,6.86
2022-12-25T18:01:16.178Z,6.86
2022-12-25T18:03:44.419Z,6.89
2022-12-25T18:06:13.763Z,6.89
2022-12-25T18:08:41.711Z,6.90
2022-12-25T18:11:10.979Z,6.93
2022-12-25T18:13:37.944Z,6.94
2022-12-25T18:16:05.681Z,6.94
2022-12-25T18:18:32.779Z,6.95
2022-12-25T18:20:59.329Z,6.96
2022-12-25T18:23:25.870Z,6.97
2022-12-25T18:25:52.912Z,6.99
2022-12-25T18:28:19.518Z,7.05
2022-12-25T18:30:47.215Z,7.06
2022-12-25T18:33:14.385Z,7.16
2022-12-25T18:35:42.990Z,7.18
2022-12-25T18:38:10.931Z,7.19
2022-12-25T18:40:44.973Z,7.23
2022-12-25T18:43:12.719Z,7.23
2022-12-25T18:45:39.597Z,7.24
2022-12-25T18:48:06.609Z,7.30
2022-12-25T18:50:33.947Z,7.32
2022-12-25T18:53:00.966Z,7.33
2022-12-25T18:55:27.460Z,7.35
2022-12-25T18:57:54.753Z,7.36
2022-12-25T19:00:21.925Z,7.42
2022-12-25T19:02:48.759Z,7.46
2022-12-25T19:05:15.552Z,7.48
2022-12-25T19:07:41.986Z,7.55
2022-12-25T19:10:10.423Z,7.46
2022-12-25T19:12:37.083Z,7.45
2022-12-25T19:15:03.789Z,7.47
2022-12-25T19:17:32.119Z,7.49
2022-12-25T19:19:58.775Z,7.48
2022-12-25T19:22:25.282Z,7.42
2022-12-25T19:24:51.777Z,7.41
2022-12-25T19:27:18.275Z,7.38
2022-12-25T19:29:44.886Z,7.38
2022-12-25T19:32:11.459Z,7.39
2022-12-25T19:34:38.108Z,7.39
2022-12-25T19:37:05.068Z,7.38
2022-12-25T19:39:31.445Z,7.39
2022-12-25T19:41:57.932Z,7.40
2022-12-25T19:44:24.509Z,7.42
2022-12-25T19:46:51.103Z,7.41
2022-12-25T19:49:17.710Z,7.40
2022-12-25T19:51:46.305Z,7.39
2022-12-25T19:54:15.796Z,7.43
2022-12-25T19:56:43.245Z,7.45
2022-12-25T19:59:11.868Z,7.47
2022-12-25T20:01:39.092Z,7.48
2022-12-25T20:04:08.743Z,7.49
2022-12-25T20:06:36.655Z,7.50
2022-12-25T20:09:06.568Z,7.48
2022-12-25T20:11:35.318Z,7.49
2022-12-25T20:14:02.188Z,7.52
2022-12-25T20:16:29.052Z,7.54
2022-12-25T20:18:56.637Z,7.50
2022-12-25T20:21:23.747Z,7.51
2022-12-25T20:23:52.412Z,7.55
2022-12-25T20:26:22.006Z,7.58
2022-12-25T20:28:48.679Z,7.58
2022-12-25T20:31:18.882Z,7.58
2022-12-25T20:33:46.348Z,7.59
2022-12-25T20:36:13.239Z,7.66
2022-12-25T20:38:40.174Z,7.69
2022-12-25T20:41:26.772Z,7.77
2022-12-25T20:43:54.921Z,7.77
2022-12-25T20:46:22.403Z,7.73
2022-12-25T20:48:48.957Z,7.74
2022-12-25T20:51:18.125Z,7.74
2022-12-25T20:53:45.374Z,7.75
2022-12-25T20:56:14.030Z,7.77
2022-12-25T20:58:41.218Z,7.80
2022-12-25T21:01:13.390Z,7.83
2022-12-25T21:03:40.789Z,7.83
2022-12-25T21:06:08.572Z,7.87
2022-12-25T21:08:36.508Z,7.82
2022-12-25T21:11:04.190Z,7.78
2022-12-25T21:13:36.780Z,7.88
2022-12-25T21:16:08.735Z,7.92
2022-12-25T21:18:35.603Z,7.93
2022-12-25T21:21:06.507Z,7.87
2022-12-25T21:23:37.962Z,7.86
2022-12-25T21:26:15.619Z,7.85
2022-12-25T21:28:42.407Z,7.86
2022-12-25T21:31:09.736Z,7.88
2022-12-25T21:33:52.126Z,7.89
2022-12-25T21:36:33.764Z,7.95
2022-12-25T21:39:07.812Z,7.91
2022-12-25T21:41:36.995Z,7.95
2022-12-25T21:44:04.208Z,7.96
2022-12-25T21:46:31.291Z,7.92
2022-12-25T21:48:58.834Z,8.01
2022-12-25T21:51:50.077Z,8.02
2022-12-25T21:54:18.425Z,7.95
2022-12-25T21:56:47.192Z,7.97
2022-12-25T21:59:21.800Z,8.02
2022-12-25T22:01:49.460Z,8.00
2022-12-25T22:04:17.204Z,7.96
2022-12-25T22:07:02.131Z,7.96
2022-12-25T22:09:28.974Z,7.96
2022-12-25T22:12:14.531Z,7.96
2022-12-25T22:15:02.458Z,7.95
2022-12-25T22:17:50.084Z,7.96
2022-12-25T22:20:25.914Z,7.93
2022-12-25T22:22:53.385Z,7.91
2022-12-25T22:25:20.846Z,7.89
2022-12-25T22:27:48.349Z,7.87
2022-12-25T22:30:20.867Z,7.90
2022-12-25T22:32:47.641Z,7.86
2022-12-25T22:35:14.496Z,7.87
2022-12-25T22:37:42.861Z,7.85
2022-12-25T22:40:12.470Z,7.80
2022-12-25T22:42:38.980Z,7.80
2022-12-25T22:45:05.915Z,7.80
2022-12-25T22:47:32.292Z,7.81
2022-12-25T22:49:58.793Z,7.82
2022-12-25T22:52:25.363Z,7.84
2022-12-25T22:54:51.820Z,7.83
2022-12-25T22:57:18.266Z,7.85
2022-12-25T22:59:44.849Z,7.83
2022-12-25T23:02:11.583Z,7.88
2022-12-25T23:04:38.138Z,7.86
2022-12-25T23:07:05.092Z,7.85
2022-12-25T23:09:31.628Z,7.81
2022-12-25T23:11:59.502Z,7.79
2022-12-25T23:14:39.029Z,7.80
2022-12-25T23:17:28.567Z,7.76
2022-12-25T23:20:14.933Z,7.75
2022-12-25T23:23:00.672Z,7.73
2022-12-25T23:25:45.927Z,7.70
2022-12-25T23:28:12.394Z,7.72
2022-12-25T23:30:39.077Z,7.72
2022-12-25T23:33:06.038Z,7.71
2022-12-25T23:35:32.521Z,7.73
2022-12-25T23:37:59.016Z,7.71
2022-12-25T23:40:25.673Z,7.70
2022-12-25T23:42:52.191Z,7.64
2022-12-25T23:45:18.643Z,7.62
2022-12-25T23:47:45.504Z,7.59
2022-12-25T23:50:11.962Z,7.56
2022-12-25T23:52:38.459Z,7.49
2022-12-25T23:55:05.699Z,7.50
2022-12-25T23:57:32.272Z,7.45
2022-12-25T23:59:58.764Z,7.42
